Terminal Aerodrome Forecast
Issued by NWS Melbourne, FL

Home | Current Version | Previous Version | Text Only | Print | Product List | Glossary On
Versions: 1 2 3 4 5 6 7 8 9 10 11 12 13 14 15 16 17 18
372
FTUS42 KMLB 181259 AAA
TAFDAB
TAF AMD
KDAB 181259Z 1813/1912 19004KT 3SM BR BKN250
      TEMPO 1813/1814 2SM BR FEW007
     FM181500 21005KT P6SM SCT010 SCT025 SCT250
      TEMPO 1815/1816 BKN015
     FM181900 07007KT P6SM SCT030 SCT050 SCT250
     FM190000 VRB02KT P6SM FEW045 SCT250
     FM190600 VRB02KT 3SM BR SCT004=

USA.gov is the U.S. government's official web portal to all federal, state and local government web resources and services.